Time;durP1;ratioP1;P1;durP2;ratioP2;P2;SDS_P1;SDS_P2;PMS_P1;PMS_P2;Temp;Humidity;BMP_temperature;BMP_pressure;BME280_temperature;BME280_humidity;BME280_pressure;Samples;Min_cycle;Max_cycle;Signal;HPM_P1;HPM_P2
2023/06/14 00:00:12;;;;;;;9.75;1.42;;;18.30;64.90;;;;;;5104139;28;20051;-53
2023/06/14 00:02:41;;;;;;;;;;;18.20;65.60;;;;;;5111449;28;20035;-55
2023/06/14 00:05:07;;;;;;;3.72;1.20;;;18.10;65.40;;;;;;5105288;28;19916;-55
2023/06/14 00:07:43;;;;;;;2.55;1.00;;;18.10;65.20;;;;;;5110466;28;20032;-56
2023/06/14 00:10:14;;;;;;;6.43;1.25;;;18.00;65.60;;;;;;5098629;28;20032;-53
2023/06/14 00:12:39;;;;;;;6.78;1.08;;;18.00;65.40;;;;;;5098783;28;20130;-56
2023/06/14 00:15:06;;;;;;;3.97;1.15;;;18.00;65.60;;;;;;5094163;28;20119;-55
2023/06/14 00:17:31;;;;;;;5.68;1.27;;;18.00;65.80;;;;;;5089895;28;20075;-55
2023/06/14 00:19:58;;;;;;;2.20;1.17;;;17.90;65.60;;;;;;5090939;28;20075;-56
2023/06/14 00:22:24;;;;;;;4.68;1.20;;;17.90;65.70;;;;;;5090743;28;20044;-57
2023/06/14 00:24:50;;;;;;;;;;;17.80;65.70;;;;;;5090263;28;20412;-53
2023/06/14 00:27:16;;;;;;;3.47;1.00;;;17.80;65.80;;;;;;5090592;28;19916;-54
2023/06/14 00:29:41;;;;;;;5.80;1.27;;;17.80;65.80;;;;;;5088561;28;20040;-56
2023/06/14 00:32:07;;;;;;;3.72;1.08;;;17.80;65.90;;;;;;5088519;28;20084;-58
2023/06/14 00:34:33;;;;;;;5.65;1.50;;;17.80;66.20;;;;;;5085972;28;20035;-58
2023/06/14 00:36:59;;;;;;;6.35;1.13;;;17.80;66.30;;;;;;5091082;28;20043;-56
2023/06/14 00:39:25;;;;;;;4.60;1.10;;;17.70;66.30;;;;;;5089498;28;20036;-57
2023/06/14 00:41:51;;;;;;;3.83;1.20;;;17.70;66.40;;;;;;5090161;28;20040;-56
2023/06/14 00:44:17;;;;;;;9.02;1.13;;;17.60;66.80;;;;;;5089473;28;20075;-53
2023/06/14 00:46:43;;;;;;;4.85;1.08;;;17.60;66.70;;;;;;5090142;28;20042;-55
2023/06/14 00:49:10;;;;;;;3.35;0.82;;;17.60;67.10;;;;;;5089176;28;20040;-57
2023/06/14 00:51:37;;;;;;;3.63;0.90;;;17.50;67.50;;;;;;5089641;28;20059;-58
2023/06/14 00:54:03;;;;;;;3.45;1.15;;;17.40;67.10;;;;;;5089096;28;20055;-55
2023/06/14 00:56:29;;;;;;;10.93;1.73;;;17.30;67.10;;;;;;5090318;28;20028;-54
2023/06/14 00:58:57;;;;;;;7.85;1.10;;;17.30;67.40;;;;;;5089533;28;20093;-54
2023/06/14 01:01:23;;;;;;;2.65;1.38;;;17.30;67.60;;;;;;5089168;28;20040;-53
2023/06/14 01:03:50;;;;;;;1.75;0.85;;;17.20;67.50;;;;;;5087615;28;20043;-53
2023/06/14 01:06:26;;;;;;;6.63;1.50;;;17.20;67.60;;;;;;5089354;28;20029;-57
2023/06/14 01:09:03;;;;;;;2.03;1.23;;;17.10;67.90;;;;;;5088986;28;20044;-55
2023/06/14 01:11:34;;;;;;;4.43;1.27;;;17.10;68.10;;;;;;5089229;28;20032;-56
2023/06/14 01:14:03;;;;;;;7.43;0.80;;;17.10;68.30;;;;;;5088907;28;20051;-57
2023/06/14 01:16:29;;;;;;;4.63;0.93;;;17.00;68.20;;;;;;5100182;28;20128;-59
2023/06/14 01:18:56;;;;;;;7.95;1.38;;;17.00;68.20;;;;;;5093129;28;20111;-54
2023/06/14 01:21:23;;;;;;;3.72;1.25;;;17.00;68.40;;;;;;5090240;28;20401;-55
2023/06/14 01:23:52;;;;;;;5.60;0.98;;;17.00;68.50;;;;;;5092354;28;20166;-55
2023/06/14 01:26:20;;;;;;;8.95;1.27;;;16.90;68.80;;;;;;5094200;28;20042;-53
2023/06/14 01:28:48;;;;;;;3.25;1.00;;;16.90;68.80;;;;;;5093284;28;20153;-56
2023/06/14 01:31:21;;;;;;;11.73;1.30;;;16.80;68.90;;;;;;5093924;28;20054;-55
2023/06/14 01:33:49;;;;;;;7.20;1.45;;;16.80;69.20;;;;;;5091996;28;20101;-58
2023/06/14 01:36:16;;;;;;;4.55;1.58;;;16.70;69.30;;;;;;5093957;28;20040;-57
2023/06/14 01:38:43;;;;;;;5.65;1.13;;;16.60;69.50;;;;;;5093102;28;20465;-55
2023/06/14 01:41:09;;;;;;;5.65;1.13;;;16.60;69.60;;;;;;5093571;28;20044;-55
2023/06/14 01:43:35;;;;;;;17.08;1.30;;;16.50;69.80;;;;;;5058088;28;20060;-54
2023/06/14 01:46:02;;;;;;;;;;;16.50;70.30;;;;;;5093640;28;20032;-58
2023/06/14 01:48:27;;;;;;;3.47;0.97;;;16.50;70.70;;;;;;5092876;28;19916;-57
2023/06/14 01:50:53;;;;;;;9.30;1.42;;;16.40;70.30;;;;;;5093656;28;20395;-55
2023/06/14 01:53:19;;;;;;;5.50;1.55;;;16.40;70.30;;;;;;5092814;28;20043;-55
2023/06/14 01:55:48;;;;;;;6.82;1.77;;;16.40;70.40;;;;;;5093404;28;20496;-54
2023/06/14 01:58:16;;;;;;;5.07;1.90;;;16.30;70.70;;;;;;5091376;28;20044;-58
2023/06/14 02:00:43;;;;;;;8.20;1.10;;;16.30;70.80;;;;;;5092624;28;20489;-56
2023/06/14 02:03:08;;;;;;;6.22;1.25;;;16.20;71.00;;;;;;5092913;28;20044;-55
2023/06/14 02:05:34;;;;;;;4.90;1.20;;;16.20;71.20;;;;;;5093316;28;20115;-55
2023/06/14 02:08:00;;;;;;;3.20;1.27;;;16.20;71.50;;;;;;5092952;28;20047;-56
2023/06/14 02:10:26;;;;;;;7.22;1.73;;;16.10;71.40;;;;;;5093470;28;20040;-58
2023/06/14 02:12:51;;;;;;;6.45;1.17;;;16.10;71.70;;;;;;5092388;28;20470;-53
2023/06/14 02:15:18;;;;;;;4.70;1.55;;;16.10;71.80;;;;;;5092111;28;20268;-55
2023/06/14 02:17:49;;;;;;;4.43;1.20;;;16.00;71.80;;;;;;5091332;28;20051;-58
2023/06/14 02:20:15;;;;;;;3.55;0.93;;;15.90;72.60;;;;;;5093003;28;20044;-52
2023/06/14 02:22:41;;;;;;;4.50;1.00;;;15.90;72.20;;;;;;5102854;28;20345;-56
2023/06/14 02:25:07;;;;;;;6.63;1.02;;;15.80;72.30;;;;;;5093008;28;20062;-57
2023/06/14 02:27:33;;;;;;;5.57;1.50;;;15.80;72.50;;;;;;5090109;28;20036;-56
2023/06/14 02:30:00;;;;;;;7.50;1.35;;;15.80;72.60;;;;;;5092653;28;20067;-56
2023/06/14 02:32:27;;;;;;;5.47;1.30;;;15.80;72.80;;;;;;5090075;28;20054;-55
2023/06/14 02:34:53;;;;;;;6.72;1.25;;;15.80;73.10;;;;;;5091706;28;20405;-55
2023/06/14 02:37:19;;;;;;;4.20;1.60;;;15.70;73.30;;;;;;5092423;28;20047;-54
2023/06/14 02:39:45;;;;;;;6.13;1.25;;;15.60;73.40;;;;;;5090856;28;20039;-56
2023/06/14 02:42:11;;;;;;;4.18;1.13;;;15.60;73.70;;;;;;5091355;28;20040;-55
2023/06/14 02:44:36;;;;;;;4.03;1.63;;;15.60;74.10;;;;;;5091705;28;20123;-54
2023/06/14 02:47:03;;;;;;;8.68;1.88;;;15.50;74.00;;;;;;5092526;28;20044;-56
2023/06/14 02:49:29;;;;;;;3.55;1.83;;;15.50;74.50;;;;;;5091470;28;20051;-58
2023/06/14 02:51:55;;;;;;;6.60;1.42;;;15.40;74.50;;;;;;5091853;28;20048;-56
2023/06/14 02:54:21;;;;;;;7.43;1.73;;;15.40;74.50;;;;;;5092077;28;20572;-56
2023/06/14 02:56:46;;;;;;;5.68;1.83;;;15.40;74.50;;;;;;5092249;28;20050;-52
2023/06/14 02:59:13;;;;;;;5.22;1.45;;;15.40;74.80;;;;;;5091617;28;20518;-52
2023/06/14 03:01:40;;;;;;;4.57;1.23;;;15.40;75.10;;;;;;5091908;28;20083;-55
2023/06/14 03:04:07;;;;;;;8.65;1.48;;;15.30;75.00;;;;;;5090871;28;20447;-55
2023/06/14 03:06:33;;;;;;;4.57;0.90;;;15.30;74.70;;;;;;5092217;28;20402;-55
2023/06/14 03:09:00;;;;;;;2.30;1.30;;;15.30;75.80;;;;;;5091339;28;20039;-56
2023/06/14 03:11:30;;;;;;;4.15;1.70;;;15.30;75.40;;;;;;5091973;28;20036;-55
2023/06/14 03:13:56;;;;;;;7.15;2.10;;;15.30;75.60;;;;;;5091084;28;20135;-56
2023/06/14 03:16:23;;;;;;;;;;;15.30;75.80;;;;;;5092301;28;20074;-53
2023/06/14 03:18:50;;;;;;;8.25;2.00;;;15.20;76.30;;;;;;5089671;28;19922;-53
2023/06/14 03:21:16;;;;;;;3.97;1.95;;;15.20;75.90;;;;;;5092102;28;20424;-55
2023/06/14 03:23:42;;;;;;;7.82;1.70;;;15.30;75.90;;;;;;5091036;28;20044;-55
2023/06/14 03:26:08;;;;;;;4.85;1.85;;;15.20;76.30;;;;;;5105544;28;20055;-55
2023/06/14 03:28:34;;;;;;;7.82;2.00;;;15.20;76.30;;;;;;5094032;28;20036;-55
2023/06/14 03:31:01;;;;;;;7.25;2.40;;;15.20;76.50;;;;;;5098352;28;20040;-52
2023/06/14 03:33:27;;;;;;;4.30;1.73;;;15.20;76.50;;;;;;5090629;28;20507;-55
2023/06/14 03:35:52;;;;;;;7.28;1.40;;;15.20;76.80;;;;;;5105299;28;20035;-57
2023/06/14 03:38:18;;;;;;;4.07;1.88;;;15.20;77.00;;;;;;5098848;28;20071;-52
2023/06/14 03:40:44;;;;;;;4.53;1.33;;;15.20;77.20;;;;;;5103311;28;20485;-52
2023/06/14 03:43:10;;;;;;;2.03;1.00;;;15.10;77.40;;;;;;5099517;28;20055;-53
2023/06/14 03:45:35;;;;;;;8.82;1.77;;;15.10;77.40;;;;;;5090170;28;20066;-56
2023/06/14 03:48:02;;;;;;;12.10;2.00;;;15.10;77.60;;;;;;5099036;28;20565;-55
2023/06/14 03:50:28;;;;;;;6.55;1.73;;;15.10;77.80;;;;;;5103583;28;20121;-54
2023/06/14 03:52:53;;;;;;;9.65;1.70;;;15.00;77.90;;;;;;5090796;28;20496;-56
2023/06/14 03:55:19;;;;;;;2.97;1.40;;;15.00;78.30;;;;;;5089357;28;20076;-57
2023/06/14 03:57:45;;;;;;;2.33;1.63;;;15.00;78.40;;;;;;5090577;28;20035;-54
2023/06/14 04:00:12;;;;;;;5.65;1.60;;;15.00;78.40;;;;;;5090646;28;20032;-56
2023/06/14 04:02:38;;;;;;;3.92;1.73;;;15.00;78.70;;;;;;5090381;28;20055;-52
2023/06/14 04:05:05;;;;;;;5.43;2.10;;;15.00;78.70;;;;;;5090123;28;20412;-56
2023/06/14 04:07:30;;;;;;;3.75;1.88;;;15.00;78.90;;;;;;5089985;28;20040;-56
2023/06/14 04:09:56;;;;;;;5.90;1.80;;;15.00;79.20;;;;;;5090948;28;20038;-55
2023/06/14 04:12:22;;;;;;;12.50;1.85;;;15.00;79.30;;;;;;5090399;28;20408;-56
2023/06/14 04:14:47;;;;;;;5.25;1.95;;;15.00;79.30;;;;;;5089947;28;20036;-55
2023/06/14 04:17:13;;;;;;;6.20;1.70;;;15.00;79.50;;;;;;5090712;28;20115;-57
2023/06/14 04:19:39;;;;;;;3.53;1.48;;;15.10;79.80;;;;;;5071964;28;20086;-58
2023/06/14 04:22:05;;;;;;;4.85;1.83;;;15.10;79.50;;;;;;5090535;28;20397;-54
2023/06/14 04:24:34;;;;;;;6.95;2.15;;;15.10;79.70;;;;;;5089793;28;20048;-56
2023/06/14 04:27:01;;;;;;;7.63;1.55;;;15.10;79.80;;;;;;5089696;28;20032;-55
2023/06/14 04:29:29;;;;;;;5.13;2.42;;;15.10;79.70;;;;;;5087925;28;20106;-56
2023/06/14 04:31:58;;;;;;;3.92;1.83;;;15.20;79.80;;;;;;5090606;28;20097;-53
2023/06/14 04:34:29;;;;;;;5.32;1.75;;;15.20;80.10;;;;;;5088318;28;20218;-55
2023/06/14 04:36:59;;;;;;;4.72;2.17;;;15.20;80.00;;;;;;5090289;28;20032;-56
2023/06/14 04:39:25;;;;;;;11.88;2.88;;;15.30;80.10;;;;;;5080409;28;20040;-55
2023/06/14 04:41:56;;;;;;;4.80;2.20;;;15.30;80.30;;;;;;5088412;28;20111;-57
2023/06/14 04:44:29;;;;;;;6.20;1.92;;;15.30;80.10;;;;;;5089158;28;20032;-52
2023/06/14 04:46:58;;;;;;;12.68;2.42;;;15.40;80.40;;;;;;5089824;28;20540;-55
2023/06/14 04:49:24;;;;;;;5.97;2.13;;;15.40;80.20;;;;;;5087356;28;20032;-55
2023/06/14 04:52:01;;;;;;;9.57;2.38;;;15.40;80.20;;;;;;5090164;28;20046;-53
2023/06/14 04:54:27;;;;;;;6.03;1.85;;;15.50;80.30;;;;;;5088179;28;20098;-57
2023/06/14 04:56:54;;;;;;;;;;;15.50;80.50;;;;;;5089935;28;20050;-58
2023/06/14 04:59:22;;;;;;;;;;;15.60;80.60;;;;;;5089652;28;19915;-54
2023/06/14 05:01:53;;;;;;;3.13;1.85;;;15.60;81.30;;;;;;5090077;28;19916;-55
2023/06/14 05:04:19;;;;;;;5.18;2.03;;;15.70;80.00;;;;;;5089044;28;20051;-54
2023/06/14 05:06:47;;;;;;;6.93;2.28;;;15.80;80.40;;;;;;5090110;28;20035;-59
2023/06/14 05:09:14;;;;;;;2.95;1.95;;;15.80;80.40;;;;;;5089149;28;20043;-58
2023/06/14 05:11:42;;;;;;;4.82;1.92;;;15.90;80.60;;;;;;5090412;28;20046;-56
2023/06/14 05:14:07;;;;;;;4.53;2.53;;;16.00;81.00;;;;;;5089515;28;20497;-57
2023/06/14 05:16:33;;;;;;;6.85;1.98;;;16.10;80.80;;;;;;5090581;28;20046;-56
2023/06/14 05:18:59;;;;;;;3.78;1.90;;;16.20;80.70;;;;;;5089272;28;20043;-53
2023/06/14 05:21:25;;;;;;;6.65;2.03;;;16.20;80.80;;;;;;5089761;28;20524;-56
2023/06/14 05:23:51;;;;;;;4.53;1.90;;;16.30;80.40;;;;;;5088849;28;20040;-54
2023/06/14 05:26:17;;;;;;;3.25;2.53;;;16.40;79.70;;;;;;5089848;28;20050;-55
2023/06/14 05:28:42;;;;;;;5.38;2.17;;;16.50;80.10;;;;;;5089139;28;20276;-55
2023/06/14 05:31:08;;;;;;;6.05;1.92;;;16.60;80.10;;;;;;5089586;28;20036;-58
2023/06/14 05:33:33;;;;;;;5.35;1.80;;;16.70;79.50;;;;;;5089046;28;20032;-52
2023/06/14 05:35:59;;;;;;;5.25;2.08;;;16.80;79.40;;;;;;5089964;28;20032;-54
2023/06/14 05:38:25;;;;;;;3.80;2.13;;;16.90;79.50;;;;;;5088629;28;20051;-58
2023/06/14 05:40:51;;;;;;;;;;;16.90;79.70;;;;;;5090000;28;20115;-57
2023/06/14 05:43:16;;;;;;;4.13;2.15;;;17.00;79.90;;;;;;5088719;28;20482;-57
2023/06/14 05:45:42;;;;;;;7.40;2.30;;;17.10;78.40;;;;;;5089573;28;20302;-52
2023/06/14 05:48:08;;;;;;;7.28;2.65;;;17.20;78.90;;;;;;5088941;28;20111;-54
2023/06/14 05:50:33;;;;;;;2.70;1.55;;;17.30;79.00;;;;;;5091527;28;20546;-58
2023/06/14 05:52:59;;;;;;;5.10;1.65;;;17.40;78.30;;;;;;5088646;28;20481;-59
2023/06/14 05:55:25;;;;;;;4.70;2.15;;;17.40;78.50;;;;;;5085130;28;20040;-58
2023/06/14 05:57:50;;;;;;;3.92;1.90;;;17.60;77.70;;;;;;5088473;28;20331;-59
2023/06/14 06:00:17;;;;;;;5.07;1.67;;;17.60;77.70;;;;;;5097370;28;20055;-56
2023/06/14 06:02:43;;;;;;;65.45;5.30;;;17.70;77.50;;;;;;5107845;28;20039;-60
2023/06/14 06:05:12;;;;;;;172.65;11.95;;;17.80;77.30;;;;;;5105814;28;20036;-58
2023/06/14 06:07:40;;;;;;;5.00;1.92;;;17.80;77.10;;;;;;5101631;28;20089;-57
2023/06/14 06:10:06;;;;;;;4.10;2.05;;;17.90;76.70;;;;;;5101058;28;20070;-56
2023/06/14 06:12:32;;;;;;;;;;;18.00;76.40;;;;;;5093027;28;20309;-59
2023/06/14 06:14:58;;;;;;;2.17;1.43;;;18.10;75.90;;;;;;5093956;28;20426;-60
2023/06/14 06:17:25;;;;;;;8.95;1.40;;;18.20;76.70;;;;;;5092268;28;20040;-57
2023/06/14 06:19:51;;;;;;;2.65;1.38;;;18.30;76.30;;;;;;5091635;28;20040;-57
2023/06/14 06:22:17;;;;;;;9.02;1.90;;;18.40;75.90;;;;;;5092984;28;20382;-57
2023/06/14 06:24:42;;;;;;;3.33;1.55;;;18.50;75.10;;;;;;5091411;28;20039;-55
2023/06/14 06:27:08;;;;;;;4.63;1.25;;;18.60;75.00;;;;;;5092769;28;20028;-55
2023/06/14 06:29:34;;;;;;;1.73;1.52;;;18.60;74.60;;;;;;5090650;28;20036;-55
2023/06/14 06:32:00;;;;;;;3.33;1.20;;;18.70;75.30;;;;;;5081632;28;20405;-59
2023/06/14 06:34:26;;;;;;;11.88;1.50;;;18.80;75.40;;;;;;5073505;28;20073;-56
2023/06/14 06:36:52;;;;;;;3.75;0.90;;;18.90;75.00;;;;;;5081578;28;20051;-58
2023/06/14 06:39:18;;;;;;;6.50;1.73;;;18.90;74.30;;;;;;5074184;28;20063;-55
2023/06/14 06:41:43;;;;;;;3.22;1.33;;;19.00;74.20;;;;;;5074965;28;20046;-58
2023/06/14 06:44:10;;;;;;;;;;;19.10;73.70;;;;;;5075388;28;20040;-55
2023/06/14 06:46:39;;;;;;;5.30;1.10;;;19.20;74.60;;;;;;5078125;28;19916;-55
2023/06/14 06:49:05;;;;;;;10.48;1.20;;;19.30;74.30;;;;;;5074928;28;20286;-60
2023/06/14 06:51:31;;;;;;;3.00;0.70;;;19.40;74.00;;;;;;5078584;28;20024;-59
2023/06/14 06:53:57;;;;;;;4.00;1.40;;;19.40;72.80;;;;;;5070805;28;20443;-56
2023/06/14 06:56:23;;;;;;;;;;;19.50;72.50;;;;;;5077835;28;20028;-58
2023/06/14 06:58:51;;;;;;;13.15;1.77;;;19.60;74.00;;;;;;5078151;28;19942;-56
2023/06/14 07:01:18;;;;;;;279.15;28.50;;;19.60;73.40;;;;;;5077408;28;20043;-52
2023/06/14 07:03:44;;;;;;;13.65;1.73;;;19.70;73.70;;;;;;5075321;28;20402;-59
2023/06/14 07:06:10;;;;;;;2.88;1.40;;;19.80;73.40;;;;;;5075628;28;20065;-58
2023/06/14 07:08:35;;;;;;;;;;;19.90;72.20;;;;;;5077505;28;20031;-56
2023/06/14 07:11:02;;;;;;;23.02;2.83;;;19.90;71.80;;;;;;5075256;28;19920;-59
2023/06/14 07:13:27;;;;;;;32.42;2.60;;;19.90;72.20;;;;;;5080367;28;20047;-57
2023/06/14 07:15:58;;;;;;;14.10;1.77;;;20.00;72.30;;;;;;5058487;28;20505;-58
2023/06/14 07:18:24;;;;;;;3.85;1.17;;;20.10;71.60;;;;;;5086364;28;20051;-54
2023/06/14 07:20:50;;;;;;;5.93;1.10;;;20.10;71.90;;;;;;5073842;28;20513;-54
2023/06/14 07:23:15;;;;;;;;;;;20.10;71.60;;;;;;5075845;28;20505;-54
2023/06/14 07:25:41;;;;;;;16.77;1.50;;;20.20;72.30;;;;;;5071997;28;19917;-58
2023/06/14 07:28:07;;;;;;;;;;;20.30;71.80;;;;;;5079102;28;20043;-54
2023/06/14 07:30:32;;;;;;;2.15;0.90;;;20.30;70.70;;;;;;5073473;28;19926;-54
2023/06/14 07:32:58;;;;;;;;;;;20.40;71.60;;;;;;5074135;28;20457;-57
2023/06/14 07:35:23;;;;;;;1.95;1.15;;;20.40;69.90;;;;;;5076196;28;19949;-55
2023/06/14 07:37:52;;;;;;;7.35;1.35;;;20.40;70.30;;;;;;5071558;28;20040;-58
2023/06/14 07:40:18;;;;;;;4.65;0.70;;;20.40;69.60;;;;;;5073087;28;20139;-57
2023/06/14 07:42:43;;;;;;;;;;;20.50;69.40;;;;;;5076637;28;20093;-56
2023/06/14 07:45:09;;;;;;;1.15;0.70;;;20.50;69.20;;;;;;5076107;28;20469;-52
2023/06/14 07:47:35;;;;;;;;;;;20.60;69.20;;;;;;5073880;28;20448;-56
2023/06/14 07:50:01;;;;;;;8.75;0.68;;;20.60;68.60;;;;;;5073163;28;19986;-59
2023/06/14 07:52:26;;;;;;;;;;;20.70;69.50;;;;;;5073910;28;20040;-57
2023/06/14 07:54:52;;;;;;;4.63;0.82;;;20.80;68.80;;;;;;5078590;28;19941;-57
2023/06/14 07:57:19;;;;;;;;;;;20.80;68.90;;;;;;5079011;28;20639;-55
2023/06/14 07:59:45;;;;;;;1.98;0.90;;;20.90;69.20;;;;;;5076231;28;19919;-56
2023/06/14 08:02:11;;;;;;;3.33;0.90;;;21.00;69.40;;;;;;5073118;28;20090;-56
2023/06/14 08:04:36;;;;;;;;;;;21.10;67.40;;;;;;5074211;28;20028;-55
2023/06/14 08:07:02;;;;;;;1.13;0.60;;;21.10;66.90;;;;;;5076163;28;19916;-56
2023/06/14 08:09:28;;;;;;;;;;;21.20;66.50;;;;;;5076756;28;20035;-55
2023/06/14 08:11:55;;;;;;;8.38;0.70;;;21.20;67.10;;;;;;5080037;28;19920;-55
2023/06/14 08:14:20;;;;;;;;;;;21.30;68.20;;;;;;5073247;28;20048;-56
2023/06/14 08:16:46;;;;;;;3.00;0.70;;;21.40;68.10;;;;;;5076856;28;19927;-54
2023/06/14 08:19:11;;;;;;;;;;;21.40;67.40;;;;;;5076391;28;20463;-55
2023/06/14 08:21:37;;;;;;;2.42;0.82;;;21.50;67.60;;;;;;5081689;28;19928;-55
2023/06/14 08:24:03;;;;;;;;;;;21.50;66.00;;;;;;5076239;28;20044;-55
2023/06/14 08:26:29;;;;;;;6.22;0.40;;;21.60;66.70;;;;;;5082631;28;19974;-56
2023/06/14 08:28:55;;;;;;;;;;;21.60;66.60;;;;;;5077753;28;20041;-58
2023/06/14 08:31:22;;;;;;;2.30;0.50;;;21.60;66.50;;;;;;5080203;28;19916;-57
2023/06/14 08:33:47;;;;;;;4.05;0.70;;;21.70;66.00;;;;;;5081378;28;20514;-54
2023/06/14 08:36:13;;;;;;;;;;;21.70;66.60;;;;;;5076415;28;20131;-56
2023/06/14 08:38:39;;;;;;;30.13;2.40;;;21.80;66.20;;;;;;5072968;28;20146;-57
2023/06/14 08:41:06;;;;;;;10.60;0.77;;;21.80;65.70;;;;;;5088879;28;20049;-57
2023/06/14 08:43:32;;;;;;;4.00;0.80;;;21.90;65.80;;;;;;5086328;28;20056;-57
2023/06/14 08:46:03;;;;;;;5.15;0.68;;;21.90;65.50;;;;;;5080984;28;20050;-54
2023/06/14 08:48:32;;;;;;;8.65;0.85;;;22.00;65.30;;;;;;5076979;28;20282;-55
2023/06/14 08:51:03;;;;;;;2.83;0.70;;;22.00;64.90;;;;;;5079019;28;20072;-58
2023/06/14 08:53:33;;;;;;;2.97;0.70;;;22.00;64.20;;;;;;5081361;28;20046;-55
2023/06/14 08:56:04;;;;;;;6.70;0.60;;;22.10;65.50;;;;;;5083379;28;20063;-57
2023/06/14 08:58:31;;;;;;;6.78;0.57;;;22.30;65.60;;;;;;5074752;28;20513;-57
2023/06/14 09:00:58;;;;;;;4.88;1.10;;;22.40;64.40;;;;;;5079039;28;20054;-57
2023/06/14 09:03:29;;;;;;;3.67;0.65;;;22.40;64.10;;;;;;5077667;28;20400;-56
2023/06/14 09:06:01;;;;;;;1.38;0.63;;;22.40;65.00;;;;;;5079226;28;20035;-55
2023/06/14 09:08:31;;;;;;;4.68;0.50;;;22.40;64.60;;;;;;5081732;28;20044;-53
2023/06/14 09:10:57;;;;;;;1.90;0.52;;;22.50;64.60;;;;;;5081804;28;20081;-57
2023/06/14 09:13:22;;;;;;;2.28;0.50;;;22.60;64.90;;;;;;5078723;28;20058;-55
2023/06/14 09:15:48;;;;;;;;;;;22.60;65.40;;;;;;5078407;28;20039;-54
2023/06/14 09:18:13;;;;;;;2.10;0.40;;;22.80;64.40;;;;;;5074513;28;19955;-53
2023/06/14 09:20:40;;;;;;;4.68;0.65;;;22.90;64.80;;;;;;5074245;28;20378;-56
2023/06/14 09:23:07;;;;;;;15.70;1.30;;;22.90;63.80;;;;;;5072491;28;20131;-59
2023/06/14 09:25:41;;;;;;;5.20;0.70;;;22.80;62.10;;;;;;5075721;28;20028;-56
2023/06/14 09:28:11;;;;;;;3.08;0.57;;;22.80;62.70;;;;;;5074287;28;20105;-57
2023/06/14 09:30:38;;;;;;;7.47;1.25;;;22.70;63.40;;;;;;5075571;28;20043;-58
2023/06/14 09:33:03;;;;;;;1.83;0.30;;;22.70;63.60;;;;;;5072303;28;20050;-55
2023/06/14 09:35:30;;;;;;;;;;;22.80;63.40;;;;;;5079811;28;20044;-58
2023/06/14 09:37:56;;;;;;;3.40;0.60;;;23.00;62.80;;;;;;5082919;28;19920;-54
2023/06/14 09:40:22;;;;;;;;;;;23.00;62.30;;;;;;5082977;28;20040;-56
2023/06/14 09:42:48;;;;;;;5.07;0.40;;;23.10;61.70;;;;;;5081236;28;19916;-56
2023/06/14 09:45:14;;;;;;;26.70;2.17;;;23.00;61.00;;;;;;5080384;28;20033;-52
2023/06/14 09:47:41;;;;;;;3.63;0.50;;;23.10;60.50;;;;;;5082696;28;20048;-54
2023/06/14 09:50:07;;;;;;;8.48;0.50;;;23.00;60.00;;;;;;5081614;28;20042;-54
2023/06/14 09:52:33;;;;;;;;;;;23.10;59.60;;;;;;5083941;28;20115;-59
2023/06/14 09:54:59;;;;;;;3.00;0.50;;;23.20;61.50;;;;;;5080484;28;19920;-51
2023/06/14 09:57:27;;;;;;;10.15;0.75;;;23.20;60.10;;;;;;5082152;28;20341;-54
2023/06/14 09:59:58;;;;;;;8.10;1.13;;;23.20;59.40;;;;;;5086641;28;20080;-53
2023/06/14 10:02:31;;;;;;;0.88;0.40;;;23.20;60.20;;;;;;5080376;28;20043;-58
2023/06/14 10:05:08;;;;;;;4.35;0.43;;;23.30;60.30;;;;;;5076485;28;20032;-54
2023/06/14 10:08:00;;;;;;;3.88;0.55;;;23.30;59.80;;;;;;5084637;28;20040;-57
2023/06/14 10:10:25;;;;;;;5.18;0.77;;;23.40;60.80;;;;;;5077097;28;20048;-58
2023/06/14 10:12:52;;;;;;;2.80;0.60;;;23.30;60.50;;;;;;5077806;28;20084;-52
2023/06/14 10:15:34;;;;;;;3.22;0.50;;;23.30;60.50;;;;;;5084638;28;20039;-53
2023/06/14 10:18:20;;;;;;;2.83;0.60;;;23.30;60.80;;;;;;5087732;28;20039;-57
2023/06/14 10:20:59;;;;;;;6.38;0.70;;;23.30;60.30;;;;;;5083968;28;20388;-55
2023/06/14 10:23:26;;;;;;;15.60;1.48;;;23.40;60.50;;;;;;5082904;28;20401;-57
2023/06/14 10:25:56;;;;;;;3.38;0.60;;;23.30;60.00;;;;;;5085613;28;20052;-53
2023/06/14 10:28:23;;;;;;;12.73;0.85;;;23.40;60.10;;;;;;5083328;27;20048;-56
2023/06/14 10:31:08;;;;;;;28.23;2.30;;;23.40;60.80;;;;;;5078188;28;20184;-58
2023/06/14 10:33:54;;;;;;;1.20;0.60;;;23.40;60.00;;;;;;5078896;28;20024;-57
2023/06/14 10:36:34;;;;;;;9.45;0.45;;;23.40;60.30;;;;;;5074323;28;20052;-58
2023/06/14 10:39:08;;;;;;;8.85;0.50;;;23.30;60.40;;;;;;5079265;28;20043;-55
2023/06/14 10:41:36;;;;;;;3.88;0.70;;;23.40;61.50;;;;;;5078722;28;20142;-55
2023/06/14 10:44:32;;;;;;;1.48;0.60;;;23.40;60.00;;;;;;5076898;28;20050;-57
2023/06/14 10:47:01;;;;;;;5.38;0.82;;;23.40;61.70;;;;;;5079238;28;20055;-54
2023/06/14 10:49:45;;;;;;;7.25;0.60;;;23.40;60.30;;;;;;5079616;28;20209;-54
2023/06/14 10:52:16;;;;;;;4.85;0.50;;;23.40;59.80;;;;;;5083928;28;20031;-55
2023/06/14 10:55:03;;;;;;;3.08;0.40;;;23.50;61.20;;;;;;5082513;28;20051;-57
2023/06/14 10:57:31;;;;;;;3.55;0.70;;;23.50;61.30;;;;;;5083247;28;20044;-56
2023/06/14 10:59:58;;;;;;;1.88;0.80;;;23.70;59.60;;;;;;5082482;28;20040;-58
2023/06/14 11:02:51;;;;;;;7.80;0.43;;;23.80;60.40;;;;;;5077320;28;20035;-57
2023/06/14 11:05:26;;;;;;;2.63;0.35;;;23.70;59.80;;;;;;5067934;28;20488;-55
2023/06/14 11:08:06;;;;;;;4.22;1.00;;;23.80;61.50;;;;;;5078404;28;20298;-57
2023/06/14 11:10:45;;;;;;;2.85;0.47;;;23.80;59.80;;;;;;5080332;28;20498;-58
2023/06/14 11:13:11;;;;;;;2.65;0.88;;;23.80;60.10;;;;;;5085512;28;20047;-54
2023/06/14 11:15:38;;;;;;;1.10;0.68;;;23.80;60.90;;;;;;5083290;28;20425;-54
2023/06/14 11:18:09;;;;;;;1.73;0.60;;;23.90;62.00;;;;;;5082748;28;20507;-57
2023/06/14 11:20:36;;;;;;;9.40;0.80;;;24.00;61.50;;;;;;5082313;28;20124;-57
2023/06/14 11:23:02;;;;;;;3.70;0.55;;;24.00;60.60;;;;;;5082550;28;20128;-56
2023/06/14 11:25:28;;;;;;;0.47;0.30;;;24.00;59.80;;;;;;5082221;28;20039;-57
2023/06/14 11:27:54;;;;;;;6.22;0.80;;;24.00;60.70;;;;;;5080367;28;20419;-57
2023/06/14 11:30:20;;;;;;;24.50;1.15;;;24.00;60.00;;;;;;5081498;28;20040;-55
2023/06/14 11:32:47;;;;;;;8.70;0.65;;;24.20;61.10;;;;;;5082226;28;20028;-56
2023/06/14 11:35:12;;;;;;;2.85;0.82;;;24.10;59.90;;;;;;5080764;28;20048;-56
2023/06/14 11:37:41;;;;;;;4.90;0.73;;;24.10;59.70;;;;;;5075326;28;20771;-57
2023/06/14 11:40:09;;;;;;;12.65;0.98;;;24.20;60.70;;;;;;5078129;28;20452;-60
2023/06/14 11:42:37;;;;;;;3.42;0.82;;;24.20;60.70;;;;;;5081849;28;20032;-57
2023/06/14 11:45:05;;;;;;;7.22;0.77;;;24.20;61.30;;;;;;5082586;28;20032;-55
2023/06/14 11:47:37;;;;;;;4.03;0.60;;;24.20;59.60;;;;;;5083779;28;20535;-57
2023/06/14 11:50:04;;;;;;;3.63;0.93;;;24.20;61.20;;;;;;5080995;28;20097;-58
2023/06/14 11:52:31;;;;;;;4.95;0.70;;;24.20;60.60;;;;;;5083813;28;20059;-52
2023/06/14 11:54:58;;;;;;;5.13;0.45;;;24.20;60.80;;;;;;5081289;28;20040;-56
2023/06/14 11:57:24;;;;;;;5.97;0.60;;;24.30;60.50;;;;;;5081623;28;20040;-58
2023/06/14 11:59:50;;;;;;;2.70;0.75;;;24.30;61.00;;;;;;5084164;28;20436;-57
2023/06/14 12:02:16;;;;;;;1.98;0.77;;;24.40;61.60;;;;;;5081818;28;20563;-57
2023/06/14 12:04:43;;;;;;;1.63;0.57;;;24.50;61.00;;;;;;5077953;28;20105;-55
2023/06/14 12:07:17;;;;;;;2.05;0.68;;;24.70;62.10;;;;;;5078064;28;20028;-58
2023/06/14 12:10:07;;;;;;;2.65;0.50;;;24.60;60.10;;;;;;5089092;28;20123;-53
2023/06/14 12:12:37;;;;;;;2.05;0.40;;;24.50;60.60;;;;;;5085056;28;20051;-57
2023/06/14 12:15:07;;;;;;;24.70;1.80;;;24.40;60.60;;;;;;5086762;28;20471;-52
2023/06/14 12:17:38;;;;;;;27.10;2.75;;;24.40;59.10;;;;;;5092218;28;20401;-56
2023/06/14 12:20:11;;;;;;;1.23;0.57;;;24.40;60.00;;;;;;5090525;28;20082;-58
2023/06/14 12:22:37;;;;;;;3.90;0.60;;;24.40;59.90;;;;;;5098879;27;20123;-57
2023/06/14 12:25:04;;;;;;;4.43;0.40;;;24.40;60.40;;;;;;5093601;28;20039;-58
2023/06/14 12:27:30;;;;;;;3.22;0.82;;;24.40;59.90;;;;;;5084670;28;20070;-56
2023/06/14 12:30:03;;;;;;;4.95;0.50;;;24.30;59.90;;;;;;5091853;28;20028;-53
2023/06/14 12:32:29;;;;;;;3.45;0.68;;;24.40;60.10;;;;;;5087553;28;20088;-58
2023/06/14 12:34:55;;;;;;;1.05;0.47;;;24.50;60.30;;;;;;5088539;28;20083;-57
2023/06/14 12:37:20;;;;;;;5.18;0.40;;;24.50;59.40;;;;;;5083258;28;20028;-58
2023/06/14 12:39:46;;;;;;;4.25;0.40;;;24.50;59.80;;;;;;5096978;28;20078;-55
2023/06/14 12:42:14;;;;;;;1.98;0.50;;;24.60;60.40;;;;;;5087444;28;20098;-57
2023/06/14 12:44:40;;;;;;;4.25;0.50;;;24.60;60.60;;;;;;5094826;28;20043;-59
2023/06/14 12:47:07;;;;;;;2.38;0.55;;;24.70;60.50;;;;;;5092162;28;20123;-56
2023/06/14 12:49:33;;;;;;;3.90;0.43;;;24.70;60.30;;;;;;5086946;28;20119;-56
2023/06/14 12:51:59;;;;;;;1.33;0.40;;;24.70;59.30;;;;;;5085195;28;20040;-57
2023/06/14 12:54:25;;;;;;;3.47;0.50;;;24.70;61.20;;;;;;5086596;28;20039;-57